createdAt,value
2022-12-16T00:01:27.425Z,91.28
2022-12-16T00:03:56.710Z,91.28
2022-12-16T00:06:26.690Z,91.31
2022-12-16T00:08:53.710Z,91.15
2022-12-16T00:11:21.500Z,90.71
2022-12-16T00:13:48.316Z,91.48
2022-12-16T00:16:17.745Z,91.86
2022-12-16T00:18:45.811Z,91.56
2022-12-16T00:21:13.239Z,91.74
2022-12-16T00:23:41.832Z,91.79
2022-12-16T00:26:09.780Z,91.53
2022-12-16T00:28:36.952Z,91.44
2022-12-16T00:31:04.242Z,91.56
2022-12-16T00:33:31.590Z,91.92
2022-12-16T00:35:58.861Z,91.74
2022-12-16T00:38:26.651Z,92.10
2022-12-16T00:40:53.459Z,92.22
2022-12-16T00:43:20.432Z,92.42
2022-12-16T00:45:47.915Z,92.09
2022-12-16T00:48:14.996Z,91.81
2022-12-16T00:50:43.813Z,92.75
2022-12-16T00:53:10.426Z,92.75
2022-12-16T00:55:37.063Z,92.31
2022-12-16T00:58:03.698Z,92.19
2022-12-16T01:00:30.321Z,91.94
2022-12-16T01:02:57.241Z,92.17
2022-12-16T01:05:27.289Z,93.02
2022-12-16T01:07:55.006Z,93.34
2022-12-16T01:10:23.234Z,93.31
2022-12-16T01:12:50.461Z,93.75
2022-12-16T01:15:18.206Z,93.04
2022-12-16T01:17:45.350Z,93.05
2022-12-16T01:20:13.319Z,93.56
2022-12-16T01:22:40.051Z,93.70
2022-12-16T01:25:06.980Z,93.25
2022-12-16T01:27:33.673Z,93.56
2022-12-16T01:30:00.270Z,92.87
2022-12-16T01:32:27.075Z,92.34
2022-12-16T01:34:55.887Z,92.83
2022-12-16T01:37:23.901Z,92.52
2022-12-16T01:39:51.016Z,92.27
2022-12-16T01:42:21.244Z,92.17
2022-12-16T01:44:48.711Z,92.04
2022-12-16T01:47:18.496Z,91.66
2022-12-16T01:50:00.775Z,91.26
2022-12-16T01:52:32.990Z,91.15
2022-12-16T01:55:08.392Z,91.16
2022-12-16T01:57:44.301Z,90.98
2022-12-16T02:00:13.005Z,91.38
2022-12-16T02:02:43.928Z,91.41
2022-12-16T02:05:20.793Z,91.28
2022-12-16T02:08:00.027Z,91.11
2022-12-16T02:10:39.922Z,90.83
2022-12-16T02:13:35.630Z,91.39
2022-12-16T02:16:19.148Z,91.23
2022-12-16T02:18:45.797Z,91.59
2022-12-16T02:21:43.200Z,91.04
2022-12-16T02:24:29.388Z,91.67
2022-12-16T02:27:11.177Z,91.63
2022-12-16T02:30:02.292Z,91.85
2022-12-16T02:32:28.850Z,92.17
2022-12-16T02:35:38.167Z,91.71
2022-12-16T02:38:21.809Z,91.48
2022-12-16T02:41:08.618Z,92.04
2022-12-16T02:44:02.473Z,92.00
2022-12-16T02:46:33.113Z,92.00
2022-12-16T02:49:08.198Z,92.36
2022-12-16T02:51:38.109Z,92.82
2022-12-16T02:54:08.219Z,92.16
2022-12-16T02:56:58.025Z,92.21
2022-12-16T02:59:33.995Z,92.11
2022-12-16T03:02:26.975Z,91.55
2022-12-16T03:05:12.389Z,91.43
2022-12-16T03:07:41.452Z,91.25
2022-12-16T03:10:10.284Z,91.13
2022-12-16T03:12:40.453Z,91.15
2022-12-16T03:15:08.329Z,91.06
2022-12-16T03:17:37.563Z,91.09
2022-12-16T03:20:15.561Z,92.42
2022-12-16T03:22:46.163Z,93.26
2022-12-16T03:25:13.653Z,93.67
2022-12-16T03:27:46.281Z,93.57
2022-12-16T03:30:28.765Z,93.75
2022-12-16T03:33:08.472Z,94.15
2022-12-16T03:35:39.363Z,94.67
2022-12-16T03:38:10.579Z,94.14
2022-12-16T03:40:41.263Z,94.37
2022-12-16T03:43:10.876Z,94.10
2022-12-16T03:45:42.739Z,94.03
2022-12-16T03:48:11.424Z,93.88
2022-12-16T03:50:39.488Z,94.48
2022-12-16T03:53:07.474Z,94.24
2022-12-16T03:55:34.158Z,93.68
2022-12-16T03:58:00.838Z,93.57
2022-12-16T04:00:27.535Z,93.21
2022-12-16T04:02:54.444Z,93.17
2022-12-16T04:05:21.693Z,92.54
2022-12-16T04:07:48.361Z,92.74
2022-12-16T04:10:15.058Z,92.89
2022-12-16T04:13:00.403Z,92.82
2022-12-16T04:15:46.251Z,93.69
2022-12-16T04:18:37.857Z,93.44
2022-12-16T04:21:23.792Z,93.56
2022-12-16T04:24:13.532Z,93.37
2022-12-16T04:26:58.696Z,93.50
2022-12-16T04:29:25.373Z,92.83
2022-12-16T04:31:52.899Z,92.57
2022-12-16T04:34:27.018Z,92.09
2022-12-16T04:37:14.194Z,92.04
2022-12-16T04:39:59.208Z,92.45
2022-12-16T04:42:44.509Z,92.35
2022-12-16T04:45:29.741Z,94.34
2022-12-16T04:48:14.724Z,94.13
2022-12-16T04:51:00.193Z,94.34
2022-12-16T04:53:45.456Z,95.59
2022-12-16T04:56:31.235Z,96.38
2022-12-16T04:59:16.628Z,95.52
2022-12-16T05:02:01.712Z,95.27
2022-12-16T05:04:47.084Z,96.47
2022-12-16T05:07:37.888Z,97.47
2022-12-16T05:10:24.613Z,96.66
2022-12-16T05:13:13.237Z,96.77
2022-12-16T05:15:59.247Z,97.27
2022-12-16T05:18:44.251Z,97.49
2022-12-16T05:21:29.285Z,97.91
2022-12-16T05:24:14.360Z,97.84
2022-12-16T05:26:59.507Z,97.85
2022-12-16T05:29:44.929Z,98.01
2022-12-16T05:32:30.383Z,98.32
2022-12-16T05:35:15.765Z,98.72
2022-12-16T05:38:00.936Z,98.56
2022-12-16T05:40:46.398Z,98.00
2022-12-16T05:43:32.094Z,98.79
2022-12-16T05:46:17.263Z,98.49
2022-12-16T05:49:02.448Z,98.67
2022-12-16T05:51:47.730Z,98.53
2022-12-16T05:54:33.385Z,98.57
2022-12-16T05:57:18.870Z,98.28
2022-12-16T06:00:24.316Z,97.53
2022-12-16T06:03:09.495Z,98.30
2022-12-16T06:05:54.843Z,98.22
2022-12-16T06:08:39.990Z,97.98
2022-12-16T06:11:25.469Z,97.77
2022-12-16T06:14:10.731Z,97.58
2022-12-16T06:16:56.176Z,98.21
2022-12-16T06:19:41.510Z,97.58
2022-12-16T06:22:26.976Z,97.03
2022-12-16T06:25:12.146Z,96.29
2022-12-16T06:27:57.524Z,96.73
2022-12-16T06:30:42.714Z,96.76
2022-12-16T06:33:27.989Z,97.44
2022-12-16T06:36:13.069Z,97.42
2022-12-16T06:38:58.511Z,97.57
2022-12-16T06:41:44.038Z,97.25
2022-12-16T06:44:29.456Z,97.17
2022-12-16T06:47:14.863Z,96.94
2022-12-16T06:49:59.798Z,96.92
2022-12-16T06:52:45.178Z,96.92
2022-12-16T06:55:30.255Z,97.04
2022-12-16T06:58:19.859Z,97.45
2022-12-16T07:01:05.200Z,97.18
2022-12-16T07:03:50.699Z,97.40
2022-12-16T07:06:35.859Z,97.47
2022-12-16T07:09:20.967Z,97.77
2022-12-16T07:12:06.049Z,97.50
2022-12-16T07:14:51.394Z,97.10
2022-12-16T07:17:36.576Z,97.76
2022-12-16T07:20:22.287Z,97.83
2022-12-16T07:23:13.379Z,97.79
2022-12-16T07:26:04.473Z,98.07
2022-12-16T07:28:49.582Z,98.13
2022-12-16T07:31:34.806Z,97.69
2022-12-16T07:34:19.995Z,98.03
2022-12-16T07:37:05.511Z,97.98
2022-12-16T07:39:54.767Z,98.32
2022-12-16T07:42:40.626Z,98.36
2022-12-16T07:45:26.498Z,98.86
2022-12-16T07:48:11.780Z,98.95
2022-12-16T07:50:57.287Z,98.84
2022-12-16T07:53:42.633Z,99.15
2022-12-16T07:56:28.701Z,99.00
2022-12-16T07:59:14.539Z,99.57
2022-12-16T08:02:00.278Z,99.53
2022-12-16T08:04:45.921Z,99.42
2022-12-16T08:07:31.120Z,99.37
2022-12-16T08:10:16.723Z,100.00
2022-12-16T08:13:02.208Z,100.00
2022-12-16T08:15:57.962Z,99.96
2022-12-16T08:18:43.334Z,100.00
2022-12-16T08:21:28.508Z,100.00
2022-12-16T08:24:13.876Z,100.00
2022-12-16T08:26:58.967Z,100.00
2022-12-16T08:29:45.409Z,100.00
2022-12-16T08:32:32.136Z,100.00
2022-12-16T08:35:17.209Z,100.00
2022-12-16T08:38:02.540Z,100.00
2022-12-16T08:40:47.861Z,100.00
2022-12-16T08:43:33.508Z,100.00
2022-12-16T08:46:19.505Z,100.00
2022-12-16T08:49:04.876Z,100.00
2022-12-16T08:51:50.188Z,100.00
2022-12-16T08:54:36.068Z,100.00
2022-12-16T08:57:21.797Z,100.00
2022-12-16T09:00:07.134Z,100.00
2022-12-16T09:02:52.684Z,100.00
2022-12-16T09:05:38.132Z,100.00
2022-12-16T09:08:23.859Z,100.00
2022-12-16T09:11:09.097Z,100.00
2022-12-16T09:13:54.470Z,100.00
2022-12-16T09:16:40.191Z,100.00
2022-12-16T09:19:25.816Z,100.00
2022-12-16T09:22:11.125Z,100.00
2022-12-16T09:24:56.397Z,100.00
2022-12-16T09:27:41.419Z,100.00
2022-12-16T09:30:27.646Z,100.00
2022-12-16T09:33:12.851Z,100.00
2022-12-16T09:35:58.242Z,100.00
2022-12-16T09:38:43.452Z,100.00
2022-12-16T09:41:56.241Z,100.00
2022-12-16T09:44:50.607Z,100.00
2022-12-16T09:48:03.604Z,100.00
2022-12-16T09:50:50.404Z,100.00
2022-12-16T09:53:39.586Z,100.00
2022-12-16T09:56:34.795Z,100.00
2022-12-16T09:59:29.245Z,100.00
2022-12-16T10:02:14.682Z,100.00
2022-12-16T10:05:00.224Z,100.00
2022-12-16T10:07:50.331Z,100.00
2022-12-16T10:10:41.200Z,100.00
2022-12-16T10:13:51.613Z,100.00
2022-12-16T10:17:07.498Z,100.00
2022-12-16T10:20:38.266Z,100.00
2022-12-16T10:23:44.777Z,100.00
2022-12-16T10:26:42.511Z,100.00
2022-12-16T10:29:46.033Z,100.00
2022-12-16T10:32:56.562Z,100.00
2022-12-16T10:35:46.708Z,100.00
2022-12-16T10:38:39.324Z,100.00
2022-12-16T10:41:26.032Z,99.76
2022-12-16T10:44:13.920Z,99.71
2022-12-16T10:46:59.253Z,99.98
2022-12-16T10:49:46.481Z,99.22
2022-12-16T10:52:33.532Z,98.14
2022-12-16T10:55:48.995Z,97.77
2022-12-16T10:58:56.259Z,96.60
2022-12-16T11:01:47.202Z,96.74
2022-12-16T11:04:55.733Z,96.27
2022-12-16T11:07:57.937Z,95.64
2022-12-16T11:10:46.235Z,96.39
2022-12-16T11:13:44.111Z,96.10
2022-12-16T11:16:36.188Z,96.43
2022-12-16T11:19:22.130Z,94.00
2022-12-16T11:22:08.253Z,93.00
2022-12-16T11:24:53.962Z,93.21
2022-12-16T11:27:45.430Z,94.23
2022-12-16T11:30:30.969Z,94.83
2022-12-16T11:33:28.846Z,94.53
2022-12-16T11:36:23.919Z,93.93
2022-12-16T11:39:10.749Z,94.01
2022-12-16T11:42:06.269Z,93.76
2022-12-16T11:45:05.180Z,94.29
2022-12-16T11:48:06.954Z,94.70
2022-12-16T11:50:56.651Z,94.36
2022-12-16T11:53:50.841Z,94.07
2022-12-16T11:56:41.478Z,92.63
2022-12-16T11:59:58.383Z,91.47
2022-12-16T12:02:55.850Z,89.72
2022-12-16T12:05:54.491Z,89.38
2022-12-16T12:09:03.421Z,90.13
2022-12-16T12:12:00.484Z,90.69
2022-12-16T12:15:02.118Z,89.05
2022-12-16T12:18:13.717Z,89.79
2022-12-16T12:21:13.540Z,89.17
2022-12-16T12:24:17.667Z,89.93
2022-12-16T12:27:25.459Z,90.38
2022-12-16T12:30:25.587Z,89.70
2022-12-16T12:33:22.838Z,89.52
2022-12-16T12:36:46.215Z,89.59
2022-12-16T12:40:16.710Z,90.02
2022-12-16T12:43:08.290Z,90.33
2022-12-16T12:46:04.046Z,90.61
2022-12-16T12:49:32.905Z,90.25
2022-12-16T12:52:36.871Z,89.97
2022-12-16T12:56:02.014Z,89.59
2022-12-16T12:58:49.636Z,89.15
2022-12-16T13:01:40.170Z,89.33
2022-12-16T13:04:32.322Z,89.55
2022-12-16T13:07:21.549Z,89.43
2022-12-16T13:10:26.805Z,89.65
2022-12-16T13:13:35.480Z,90.03
2022-12-16T13:16:23.123Z,89.66
2022-12-16T13:19:47.165Z,87.66
2022-12-16T13:23:05.469Z,88.01
2022-12-16T13:25:59.561Z,86.66
2022-12-16T13:28:51.652Z,87.72
2022-12-16T13:31:38.058Z,88.06
2022-12-16T13:34:42.765Z,88.26
2022-12-16T13:37:42.618Z,86.63
2022-12-16T13:40:38.670Z,87.55
2022-12-16T13:43:24.259Z,85.79
2022-12-16T13:46:18.496Z,84.26
2022-12-16T13:49:03.760Z,83.54
2022-12-16T13:51:55.320Z,83.05
2022-12-16T13:55:05.531Z,82.95
2022-12-16T13:57:58.261Z,83.48
2022-12-16T14:00:57.243Z,82.52
2022-12-16T14:03:58.893Z,77.21
2022-12-16T14:06:46.340Z,77.10
2022-12-16T14:09:59.857Z,78.36
2022-12-16T14:13:04.338Z,79.30
2022-12-16T14:16:31.301Z,80.11
2022-12-16T14:19:41.522Z,80.54
2022-12-16T14:22:42.104Z,79.20
2022-12-16T14:25:37.912Z,80.78
2022-12-16T14:28:50.524Z,81.75
2022-12-16T14:31:52.681Z,81.24
2022-12-16T14:34:48.591Z,82.39
2022-12-16T14:37:56.734Z,81.72
2022-12-16T14:40:47.503Z,81.39
2022-12-16T14:43:35.218Z,82.26
2022-12-16T14:46:20.707Z,82.30
2022-12-16T14:49:07.818Z,83.02
2022-12-16T14:51:57.384Z,83.13
2022-12-16T14:54:42.496Z,83.29
2022-12-16T14:57:39.908Z,83.23
2022-12-16T15:00:27.887Z,83.67
2022-12-16T15:03:17.814Z,83.63
2022-12-16T15:06:04.435Z,83.87
2022-12-16T15:08:53.720Z,83.98
2022-12-16T15:11:40.129Z,83.73
2022-12-16T15:14:29.270Z,84.23
2022-12-16T15:17:15.828Z,84.73
2022-12-16T15:20:10.151Z,84.38
2022-12-16T15:22:55.879Z,84.55
2022-12-16T15:25:45.801Z,84.87
2022-12-16T15:29:16.604Z,85.28
2022-12-16T15:32:03.675Z,85.56
2022-12-16T15:35:05.477Z,85.36
2022-12-16T15:38:04.282Z,85.88
2022-12-16T15:40:51.473Z,86.42
2022-12-16T15:43:47.033Z,86.32
2022-12-16T15:46:42.199Z,86.06
2022-12-16T15:49:50.422Z,86.54
2022-12-16T15:53:02.972Z,86.49
2022-12-16T15:56:04.192Z,86.74
2022-12-16T15:58:55.532Z,86.81
2022-12-16T16:01:44.263Z,86.93
2022-12-16T16:04:43.508Z,86.97
2022-12-16T16:07:34.439Z,87.18
2022-12-16T16:10:39.734Z,87.16
2022-12-16T16:13:25.077Z,87.49
2022-12-16T16:16:11.306Z,87.50
2022-12-16T16:18:57.019Z,87.47
2022-12-16T16:21:42.332Z,87.84
2022-12-16T16:24:28.043Z,88.30
2022-12-16T16:27:13.912Z,88.55
2022-12-16T16:29:59.548Z,88.70
2022-12-16T16:32:45.480Z,88.78
2022-12-16T16:35:48.970Z,88.80
2022-12-16T16:38:34.616Z,88.96
2022-12-16T16:41:20.151Z,89.12
2022-12-16T16:44:07.379Z,89.16
2022-12-16T16:46:57.466Z,89.50
2022-12-16T16:49:48.075Z,89.58
2022-12-16T16:52:36.034Z,89.69
2022-12-16T16:55:21.777Z,89.86
2022-12-16T16:58:07.511Z,89.95
2022-12-16T17:00:53.778Z,89.87
2022-12-16T17:03:39.810Z,90.46
2022-12-16T17:06:25.854Z,90.35
2022-12-16T17:09:11.437Z,90.44
2022-12-16T17:11:57.060Z,90.33
2022-12-16T17:14:42.641Z,90.52
2022-12-16T17:17:28.764Z,90.63
2022-12-16T17:20:14.246Z,90.85
2022-12-16T17:22:59.975Z,90.75
2022-12-16T17:25:45.152Z,90.82
2022-12-16T17:28:30.992Z,91.18
2022-12-16T17:31:17.172Z,91.00
2022-12-16T17:34:02.649Z,90.90
2022-12-16T17:36:47.980Z,91.01
2022-12-16T17:39:33.176Z,91.01
2022-12-16T17:42:18.859Z,90.53
2022-12-16T17:45:04.365Z,90.58
2022-12-16T17:47:50.015Z,90.98
2022-12-16T17:50:35.281Z,90.92
2022-12-16T17:53:20.455Z,91.49
2022-12-16T17:56:05.730Z,91.88
2022-12-16T17:58:55.757Z,92.25
2022-12-16T18:01:41.716Z,92.24
2022-12-16T18:04:27.435Z,92.14
2022-12-16T18:07:13.311Z,92.27
2022-12-16T18:09:58.602Z,92.55
2022-12-16T18:12:44.109Z,92.52
2022-12-16T18:15:29.481Z,92.20
2022-12-16T18:18:14.638Z,91.80
2022-12-16T18:20:59.693Z,91.91
2022-12-16T18:23:48.294Z,92.09
2022-12-16T18:26:34.049Z,92.22
2022-12-16T18:29:19.062Z,92.91
2022-12-16T18:32:07.221Z,92.94
2022-12-16T18:34:52.359Z,92.71
2022-12-16T18:37:37.583Z,92.76
2022-12-16T18:40:23.493Z,92.90
2022-12-16T18:43:08.599Z,92.75
2022-12-16T18:45:53.606Z,92.81
2022-12-16T18:48:38.788Z,92.84
2022-12-16T18:51:23.860Z,93.09
2022-12-16T18:54:09.752Z,93.12
2022-12-16T18:56:55.326Z,93.19
2022-12-16T18:59:40.616Z,93.09
2022-12-16T19:02:27.559Z,93.12
2022-12-16T19:05:13.073Z,92.94
2022-12-16T19:07:58.429Z,93.04
2022-12-16T19:10:43.889Z,93.12
2022-12-16T19:13:35.411Z,92.98
2022-12-16T19:16:21.590Z,92.98
2022-12-16T19:19:06.854Z,93.28
2022-12-16T19:21:56.855Z,93.10
2022-12-16T19:24:43.150Z,93.17
2022-12-16T19:27:28.577Z,93.33
2022-12-16T19:30:13.649Z,93.60
2022-12-16T19:32:59.120Z,93.64
2022-12-16T19:35:44.837Z,93.83
2022-12-16T19:38:33.503Z,94.18
2022-12-16T19:41:18.651Z,94.61
2022-12-16T19:44:06.340Z,94.32
2022-12-16T19:46:56.112Z,94.56
2022-12-16T19:49:44.466Z,94.32
2022-12-16T19:52:47.355Z,94.53
2022-12-16T19:55:40.413Z,94.93
2022-12-16T19:58:25.670Z,94.95
2022-12-16T20:01:10.977Z,95.09
2022-12-16T20:03:56.964Z,94.96
2022-12-16T20:06:42.774Z,95.08
2022-12-16T20:09:28.305Z,95.72
2022-12-16T20:12:13.560Z,95.52
2022-12-16T20:14:59.001Z,95.59
2022-12-16T20:17:44.280Z,95.59
2022-12-16T20:20:29.544Z,95.79
2022-12-16T20:23:15.106Z,95.70
2022-12-16T20:26:00.251Z,95.46
2022-12-16T20:28:45.855Z,95.50
2022-12-16T20:31:31.176Z,95.71
2022-12-16T20:34:17.020Z,95.78
2022-12-16T20:37:02.493Z,95.67
2022-12-16T20:39:56.426Z,96.14
2022-12-16T20:42:41.827Z,96.36
2022-12-16T20:45:27.533Z,96.79
2022-12-16T20:48:12.959Z,96.53
2022-12-16T20:50:58.078Z,96.50
2022-12-16T20:53:44.169Z,96.12
2022-12-16T20:56:29.690Z,96.03
2022-12-16T20:59:15.043Z,96.03
2022-12-16T21:02:22.655Z,95.53
2022-12-16T21:05:05.856Z,95.81
2022-12-16T21:07:53.315Z,95.66
2022-12-16T21:10:38.855Z,95.41
2022-12-16T21:13:32.701Z,95.75
2022-12-16T21:16:20.273Z,95.38
2022-12-16T21:19:05.370Z,95.45
2022-12-16T21:21:50.919Z,95.38
2022-12-16T21:24:37.099Z,95.73
2022-12-16T21:27:22.770Z,95.78
2022-12-16T21:30:07.905Z,95.83
2022-12-16T21:32:53.422Z,95.78
2022-12-16T21:35:38.990Z,95.97
2022-12-16T21:38:31.068Z,95.95
2022-12-16T21:41:16.285Z,96.27
2022-12-16T21:44:01.561Z,96.30
2022-12-16T21:46:46.911Z,96.16
2022-12-16T21:49:31.824Z,96.12
2022-12-16T21:52:17.155Z,96.03
2022-12-16T21:55:02.247Z,96.10
2022-12-16T21:57:47.464Z,96.51
2022-12-16T22:00:32.989Z,96.56
2022-12-16T22:03:18.113Z,96.64
2022-12-16T22:06:04.028Z,96.60
2022-12-16T22:08:49.450Z,96.63
2022-12-16T22:11:36.414Z,96.23
2022-12-16T22:14:21.895Z,96.28
2022-12-16T22:17:07.155Z,96.38
2022-12-16T22:19:52.603Z,96.85
2022-12-16T22:22:37.970Z,96.46
2022-12-16T22:25:24.169Z,96.82
2022-12-16T22:28:09.439Z,97.11
2022-12-16T22:34:00.417Z,97.16
2022-12-16T22:36:45.548Z,97.00
2022-12-16T22:39:30.977Z,96.81
2022-12-16T22:42:15.840Z,97.06
2022-12-16T22:45:00.793Z,97.01
2022-12-16T22:47:46.270Z,97.22
2022-12-16T22:50:31.435Z,97.67
2022-12-16T22:53:16.697Z,97.87
2022-12-16T22:56:02.431Z,97.79
2022-12-16T22:58:47.427Z,97.74
2022-12-16T23:01:32.782Z,97.64
2022-12-16T23:04:17.967Z,97.09
2022-12-16T23:07:03.291Z,97.44
2022-12-16T23:09:48.454Z,97.20
2022-12-16T23:12:33.948Z,96.90
2022-12-16T23:15:19.072Z,96.72
2022-12-16T23:18:04.499Z,96.72
2022-12-16T23:20:49.422Z,97.05
2022-12-16T23:23:34.479Z,96.61
2022-12-16T23:26:20.864Z,96.44
2022-12-16T23:29:11.122Z,96.29
2022-12-16T23:31:57.327Z,96.76
2022-12-16T23:34:46.129Z,97.01
2022-12-16T23:37:31.937Z,96.65
2022-12-16T23:40:17.056Z,96.74
2022-12-16T23:43:02.423Z,96.82
2022-12-16T23:45:47.686Z,96.95
2022-12-16T23:48:32.815Z,96.86
2022-12-16T23:51:18.242Z,96.91
2022-12-16T23:54:03.622Z,96.88
2022-12-16T23:56:49.167Z,96.84
2022-12-16T23:59:34.374Z,97.39
